createdAt,value
2019-03-09T00:01:22.129Z,99.90
2019-03-09T00:04:21.931Z,99.90
2019-03-09T00:07:18.963Z,99.90
2019-03-09T00:10:15.665Z,99.90
2019-03-09T00:13:11.635Z,99.90
2019-03-09T00:16:07.354Z,99.90
2019-03-09T00:19:04.312Z,99.90
2019-03-09T00:22:01.320Z,99.90
2019-03-09T00:25:03.485Z,99.90
2019-03-09T00:28:21.772Z,99.90
2019-03-09T00:31:35.072Z,99.90
2019-03-09T00:34:33.790Z,99.90
2019-03-09T00:37:31.645Z,99.90
2019-03-09T00:40:28.256Z,99.90
2019-03-09T00:43:24.817Z,99.90
2019-03-09T00:46:21.507Z,99.90
2019-03-09T00:49:17.312Z,99.90
2019-03-09T00:52:13.340Z,99.90
2019-03-09T00:55:12.151Z,99.90
2019-03-09T00:58:08.565Z,99.90
2019-03-09T01:01:04.736Z,99.90
2019-03-09T01:04:00.286Z,99.90
2019-03-09T01:06:57.103Z,99.90
2019-03-09T01:09:53.988Z,99.90
2019-03-09T01:12:50.877Z,99.90
2019-03-09T01:15:47.070Z,99.90
2019-03-09T01:18:44.054Z,99.90
2019-03-09T01:21:40.541Z,99.90
2019-03-09T01:24:36.423Z,99.90
2019-03-09T01:27:32.010Z,99.90
2019-03-09T01:30:28.563Z,99.90
2019-03-09T01:33:24.995Z,99.90
2019-03-09T01:36:21.661Z,99.90
2019-03-09T01:39:18.410Z,99.90
2019-03-09T01:42:15.396Z,99.90
2019-03-09T01:45:12.342Z,99.90
2019-03-09T01:48:09.186Z,99.90
2019-03-09T01:51:05.949Z,99.90
2019-03-09T01:54:02.794Z,99.90
2019-03-09T01:56:58.396Z,99.90
2019-03-09T01:59:55.176Z,99.90
2019-03-09T02:02:51.748Z,99.90
2019-03-09T02:05:48.589Z,99.90
2019-03-09T02:08:45.525Z,99.90
2019-03-09T02:11:42.288Z,99.90
2019-03-09T02:14:39.176Z,99.90
2019-03-09T02:17:35.864Z,99.90
2019-03-09T02:20:33.608Z,99.90
2019-03-09T02:23:30.618Z,99.90
2019-03-09T02:26:27.226Z,99.90
2019-03-09T02:29:23.882Z,99.90
2019-03-09T02:32:20.506Z,99.90
2019-03-09T02:35:17.692Z,99.90
2019-03-09T02:38:22.759Z,99.90
2019-03-09T02:41:18.421Z,99.90
2019-03-09T02:44:18.314Z,99.90
2019-03-09T02:47:18.804Z,99.90
2019-03-09T02:50:16.026Z,99.90
2019-03-09T02:53:12.257Z,99.90
2019-03-09T02:56:08.837Z,99.90
2019-03-09T02:59:05.618Z,99.90
2019-03-09T03:02:10.418Z,99.90
2019-03-09T03:05:07.300Z,99.90
2019-03-09T03:08:03.389Z,99.90
2019-03-09T03:11:00.306Z,99.90
2019-03-09T03:13:57.526Z,99.90
2019-03-09T03:16:54.841Z,99.90
2019-03-09T03:19:50.678Z,99.90
2019-03-09T03:22:47.454Z,99.90
2019-03-09T03:25:44.609Z,99.90
2019-03-09T03:28:40.468Z,99.90
2019-03-09T03:31:36.977Z,99.90
2019-03-09T03:34:33.774Z,99.90
2019-03-09T03:37:30.267Z,99.90
2019-03-09T03:40:26.719Z,99.90
2019-03-09T03:43:23.601Z,99.90
2019-03-09T03:46:19.260Z,99.90
2019-03-09T03:49:16.011Z,99.90
2019-03-09T03:52:11.545Z,99.90
2019-03-09T03:55:08.950Z,99.90
2019-03-09T03:58:04.875Z,99.90
2019-03-09T04:01:01.714Z,99.90
2019-03-09T04:03:57.391Z,99.90
2019-03-09T04:06:53.939Z,99.90
2019-03-09T04:09:50.368Z,99.90
2019-03-09T04:12:46.935Z,99.90
2019-03-09T04:15:43.512Z,99.90
2019-03-09T04:18:39.194Z,99.90
2019-03-09T04:21:36.043Z,99.90
2019-03-09T04:24:32.881Z,99.90
2019-03-09T04:27:28.497Z,99.90
2019-03-09T04:30:25.025Z,99.90
2019-03-09T04:33:20.645Z,99.90
2019-03-09T04:36:17.552Z,99.90
2019-03-09T04:39:15.851Z,99.90
2019-03-09T04:42:12.145Z,99.90
2019-03-09T04:45:12.065Z,99.90
2019-03-09T04:48:08.149Z,99.90
2019-03-09T04:51:07.198Z,99.90
2019-03-09T04:54:03.641Z,99.90
2019-03-09T04:56:59.906Z,99.90
2019-03-09T04:59:55.505Z,99.90
2019-03-09T05:02:52.960Z,99.90
2019-03-09T05:05:50.685Z,99.90
2019-03-09T05:09:05.200Z,99.90
2019-03-09T05:12:01.919Z,99.90
2019-03-09T05:14:57.462Z,99.90
2019-03-09T05:17:53.224Z,99.90
2019-03-09T05:20:49.844Z,99.90
2019-03-09T05:23:46.430Z,99.90
2019-03-09T05:26:42.695Z,99.90
2019-03-09T05:29:39.187Z,99.90
2019-03-09T05:32:34.909Z,99.90
2019-03-09T05:35:31.500Z,99.90
2019-03-09T05:38:27.284Z,99.90
2019-03-09T05:41:23.311Z,99.90
2019-03-09T05:44:19.971Z,99.90
2019-03-09T05:47:15.943Z,99.90
2019-03-09T05:50:12.742Z,99.90
2019-03-09T05:53:21.520Z,99.90
2019-03-09T05:56:18.233Z,99.90
2019-03-09T05:59:15.018Z,99.90
2019-03-09T06:02:12.504Z,99.90
2019-03-09T06:05:37.694Z,99.90
2019-03-09T06:08:33.539Z,99.90
2019-03-09T06:11:51.889Z,99.90
2019-03-09T06:14:48.631Z,99.90
2019-03-09T06:17:45.250Z,99.90
2019-03-09T06:20:41.639Z,99.90
2019-03-09T06:23:38.210Z,99.90
2019-03-09T06:26:34.898Z,99.90
2019-03-09T06:29:31.681Z,99.90
2019-03-09T06:33:17.702Z,99.90
2019-03-09T06:37:10.585Z,99.90
2019-03-09T06:40:07.217Z,99.90
2019-03-09T06:43:03.769Z,99.90
2019-03-09T06:46:00.220Z,99.90
2019-03-09T06:48:55.954Z,99.90
2019-03-09T06:51:52.272Z,99.90
2019-03-09T06:54:49.105Z,99.90
2019-03-09T06:57:46.873Z,99.90
2019-03-09T07:00:44.321Z,99.90
2019-03-09T07:03:41.132Z,99.90
2019-03-09T07:06:37.459Z,99.90
2019-03-09T07:09:34.281Z,99.90
2019-03-09T07:12:30.311Z,99.90
2019-03-09T07:15:33.306Z,99.90
2019-03-09T07:18:36.840Z,99.90
2019-03-09T07:21:32.680Z,99.90
2019-03-09T07:24:29.464Z,99.90
2019-03-09T07:27:25.975Z,99.90
2019-03-09T07:30:21.866Z,99.90
2019-03-09T07:33:18.506Z,99.90
2019-03-09T07:36:15.321Z,99.90
2019-03-09T07:39:12.942Z,99.90
2019-03-09T07:42:08.295Z,99.90
2019-03-09T07:45:07.709Z,99.90
2019-03-09T07:48:04.155Z,99.90
2019-03-09T07:51:00.424Z,99.90
2019-03-09T07:53:57.270Z,99.90
2019-03-09T07:56:52.904Z,99.90
2019-03-09T07:59:49.522Z,99.90
2019-03-09T08:02:46.637Z,99.90
2019-03-09T08:05:42.968Z,99.90
2019-03-09T08:08:38.402Z,99.90
2019-03-09T08:11:34.013Z,99.90
2019-03-09T08:14:30.537Z,99.90
2019-03-09T08:17:27.121Z,99.90
2019-03-09T08:20:23.690Z,99.90
2019-03-09T08:23:20.605Z,99.90
2019-03-09T08:26:16.187Z,99.90
2019-03-09T08:29:11.869Z,99.90
2019-03-09T08:32:08.793Z,99.90
2019-03-09T08:35:08.202Z,99.90
2019-03-09T08:38:04.331Z,99.90
2019-03-09T08:40:59.873Z,99.90
2019-03-09T08:43:56.286Z,99.90
2019-03-09T08:46:52.792Z,99.90
2019-03-09T08:49:48.322Z,99.90
2019-03-09T08:52:44.704Z,99.90
2019-03-09T08:55:41.088Z,99.90
2019-03-09T08:58:36.297Z,99.90
2019-03-09T09:01:32.417Z,99.90
2019-03-09T09:04:29.322Z,99.90
2019-03-09T09:07:25.475Z,99.90
2019-03-09T09:10:21.852Z,99.90
2019-03-09T09:13:16.997Z,99.90
2019-03-09T09:16:12.428Z,99.90
2019-03-09T09:19:09.208Z,99.90
2019-03-09T09:22:06.807Z,99.90
2019-03-09T09:25:02.158Z,99.90
2019-03-09T09:27:58.246Z,99.90
2019-03-09T09:30:54.679Z,99.90
2019-03-09T09:33:51.068Z,99.30
2019-03-09T09:36:47.347Z,98.50
2019-03-09T09:39:42.972Z,97.60
2019-03-09T09:42:39.454Z,96.20
2019-03-09T09:45:36.137Z,96.50
2019-03-09T09:48:32.487Z,98.00
2019-03-09T09:51:28.546Z,99.90
2019-03-09T09:54:23.701Z,99.30
2019-03-09T09:57:19.416Z,96.00
2019-03-09T10:00:26.332Z,95.10
2019-03-09T10:03:23.485Z,95.80
2019-03-09T10:06:19.716Z,94.00
2019-03-09T10:09:14.906Z,93.00
2019-03-09T10:12:10.750Z,91.30
2019-03-09T10:15:09.284Z,92.20
2019-03-09T10:18:04.777Z,91.60
2019-03-09T10:21:01.376Z,92.50
2019-03-09T10:23:57.919Z,91.80
2019-03-09T10:26:54.000Z,91.80
2019-03-09T10:29:50.442Z,92.30
2019-03-09T10:32:55.726Z,92.20
2019-03-09T10:35:51.404Z,91.70
2019-03-09T10:38:49.786Z,94.20
2019-03-09T10:41:45.594Z,95.00
2019-03-09T10:44:42.212Z,95.20
2019-03-09T10:47:38.524Z,96.30
2019-03-09T10:50:36.793Z,96.20
2019-03-09T10:53:33.247Z,96.10
2019-03-09T10:56:30.704Z,96.80
2019-03-09T10:59:26.548Z,96.50
2019-03-09T11:02:22.993Z,95.60
2019-03-09T11:05:19.753Z,95.70
2019-03-09T11:08:15.009Z,96.60
2019-03-09T11:11:10.202Z,97.60
2019-03-09T11:14:06.622Z,98.00
2019-03-09T11:17:03.614Z,97.30
2019-03-09T11:19:59.200Z,98.80
2019-03-09T11:22:56.958Z,99.10
2019-03-09T11:25:52.770Z,99.20
2019-03-09T11:28:54.717Z,99.90
2019-03-09T11:31:52.977Z,99.10
2019-03-09T11:34:49.136Z,99.40
2019-03-09T11:37:45.593Z,99.90
2019-03-09T11:40:43.147Z,99.10
2019-03-09T11:43:38.583Z,98.90
2019-03-09T11:46:34.137Z,99.00
2019-03-09T11:49:30.456Z,98.10
2019-03-09T11:52:29.017Z,98.20
2019-03-09T11:55:23.866Z,99.00
2019-03-09T11:58:20.289Z,98.20
2019-03-09T12:01:16.384Z,99.10
2019-03-09T12:04:12.736Z,98.90
2019-03-09T12:07:09.559Z,98.40
2019-03-09T12:10:07.120Z,98.40
2019-03-09T12:13:02.813Z,99.30
2019-03-09T12:15:59.419Z,98.10
2019-03-09T12:18:55.073Z,98.20
2019-03-09T12:21:51.888Z,98.20
2019-03-09T12:24:53.316Z,99.10
2019-03-09T12:27:48.841Z,99.90
2019-03-09T12:30:48.564Z,99.90
2019-03-09T12:33:45.009Z,99.90
2019-03-09T12:36:44.034Z,99.90
2019-03-09T12:39:40.803Z,99.90
2019-03-09T12:42:39.326Z,99.90
2019-03-09T12:45:34.968Z,99.90
2019-03-09T12:48:44.495Z,99.90
2019-03-09T12:51:52.230Z,99.90
2019-03-09T12:54:50.901Z,99.90
2019-03-09T12:57:46.428Z,99.90
2019-03-09T13:00:43.241Z,99.90
2019-03-09T13:03:39.353Z,99.90
2019-03-09T13:06:37.800Z,99.90
2019-03-09T13:09:34.639Z,99.90
2019-03-09T13:12:32.943Z,99.90
2019-03-09T13:15:29.395Z,99.90
2019-03-09T13:18:27.287Z,99.90
2019-03-09T13:21:23.790Z,99.90
2019-03-09T13:24:20.612Z,99.90
2019-03-09T13:27:16.734Z,99.90
2019-03-09T13:30:17.140Z,99.90
2019-03-09T13:33:12.997Z,99.90
2019-03-09T13:36:09.560Z,99.90
2019-03-09T13:39:07.557Z,99.90
2019-03-09T13:42:03.393Z,99.90
2019-03-09T13:44:59.463Z,99.90
2019-03-09T13:47:54.915Z,99.90
2019-03-09T13:50:50.080Z,99.90
2019-03-09T13:53:46.516Z,99.90
2019-03-09T13:56:43.440Z,99.90
2019-03-09T13:59:39.849Z,99.90
2019-03-09T14:02:35.243Z,99.90
2019-03-09T14:05:34.375Z,99.90
2019-03-09T14:08:30.823Z,99.90
2019-03-09T14:11:26.460Z,99.90
2019-03-09T14:14:22.567Z,99.90
2019-03-09T14:17:18.840Z,99.90
2019-03-09T14:20:14.521Z,99.90
2019-03-09T14:23:10.058Z,99.90
2019-03-09T14:26:07.000Z,99.90
2019-03-09T14:29:04.976Z,99.90
2019-03-09T14:32:00.835Z,99.90
2019-03-09T14:34:57.835Z,99.90
2019-03-09T14:37:54.689Z,99.90
2019-03-09T14:40:51.178Z,99.90
2019-03-09T14:43:47.715Z,99.90
2019-03-09T14:46:44.135Z,99.90
2019-03-09T14:49:45.439Z,99.90
2019-03-09T14:52:42.371Z,99.90
2019-03-09T14:55:38.996Z,99.90
2019-03-09T14:58:37.002Z,99.90
2019-03-09T15:01:33.691Z,99.90
2019-03-09T15:04:31.523Z,99.90
2019-03-09T15:07:28.714Z,99.90
2019-03-09T15:10:25.396Z,99.90
2019-03-09T15:13:22.102Z,99.90
2019-03-09T15:16:18.406Z,99.90
2019-03-09T15:19:15.961Z,99.90
2019-03-09T15:22:14.391Z,99.90
2019-03-09T15:25:11.736Z,99.90
2019-03-09T15:28:08.530Z,99.90
2019-03-09T15:31:06.129Z,99.90
2019-03-09T15:34:02.904Z,99.90
2019-03-09T15:36:58.803Z,99.90
2019-03-09T15:40:01.394Z,99.90
2019-03-09T15:42:56.757Z,99.90
2019-03-09T15:45:53.515Z,99.90
2019-03-09T15:48:50.528Z,99.90
2019-03-09T15:51:47.213Z,99.90
2019-03-09T15:54:43.511Z,99.90
2019-03-09T15:57:40.599Z,99.90
2019-03-09T16:00:37.739Z,99.90
2019-03-09T16:03:34.543Z,99.90
2019-03-09T16:06:31.142Z,99.90
2019-03-09T16:09:27.758Z,99.90
2019-03-09T16:12:24.755Z,99.90
2019-03-09T16:15:21.493Z,99.90
2019-03-09T16:18:21.536Z,99.90
2019-03-09T16:21:17.717Z,99.90
2019-03-09T16:24:13.834Z,99.90
2019-03-09T16:27:09.847Z,99.90
2019-03-09T16:30:07.056Z,99.90
2019-03-09T16:33:04.409Z,99.90
2019-03-09T16:36:00.267Z,99.90
2019-03-09T16:38:57.020Z,99.90
2019-03-09T16:41:52.807Z,99.90
2019-03-09T16:44:49.240Z,99.90
2019-03-09T16:47:46.548Z,99.90
2019-03-09T16:50:44.743Z,99.90
2019-03-09T16:53:42.480Z,99.90
2019-03-09T16:56:38.246Z,99.90
2019-03-09T16:59:35.091Z,99.90
2019-03-09T17:02:30.851Z,99.90
2019-03-09T17:05:27.868Z,99.90
2019-03-09T17:08:23.675Z,99.90
2019-03-09T17:11:22.712Z,99.90
2019-03-09T17:14:18.453Z,99.90
2019-03-09T17:17:14.110Z,99.90
2019-03-09T17:20:11.693Z,99.90
2019-03-09T17:23:10.960Z,99.90
2019-03-09T17:26:07.799Z,99.90
2019-03-09T17:29:13.416Z,99.90
2019-03-09T17:32:09.617Z,99.90
2019-03-09T17:35:07.960Z,99.90
2019-03-09T17:38:04.252Z,99.90
2019-03-09T17:41:00.832Z,99.90
2019-03-09T17:43:57.436Z,99.90
2019-03-09T17:46:55.789Z,99.90
2019-03-09T17:49:51.611Z,99.90
2019-03-09T17:52:47.995Z,99.90
2019-03-09T17:55:45.387Z,99.90
2019-03-09T17:58:42.082Z,99.90
2019-03-09T18:01:38.754Z,99.90
2019-03-09T18:04:34.681Z,99.90
2019-03-09T18:07:31.447Z,99.90
2019-03-09T18:10:36.132Z,99.90
2019-03-09T18:13:36.285Z,99.90
2019-03-09T18:16:32.941Z,99.90
2019-03-09T18:19:48.426Z,99.90
2019-03-09T18:22:44.185Z,99.90
2019-03-09T18:25:45.928Z,99.90
2019-03-09T18:28:46.989Z,99.90
2019-03-09T18:31:48.997Z,99.90
2019-03-09T18:34:47.604Z,99.90
2019-03-09T18:37:44.173Z,99.90
2019-03-09T18:40:41.072Z,99.90
2019-03-09T18:43:42.370Z,99.90
2019-03-09T18:46:38.361Z,99.90
2019-03-09T18:49:37.226Z,99.90
2019-03-09T18:52:32.750Z,99.90
2019-03-09T18:55:29.515Z,99.90
2019-03-09T18:58:26.261Z,99.90
2019-03-09T19:01:23.077Z,99.90
2019-03-09T19:04:19.457Z,99.90
2019-03-09T19:07:15.308Z,99.90
2019-03-09T19:10:13.157Z,99.90
2019-03-09T19:13:09.956Z,99.90
2019-03-09T19:16:06.726Z,99.90
2019-03-09T19:19:03.969Z,99.90
2019-03-09T19:22:00.018Z,99.90
2019-03-09T19:24:56.632Z,99.90
2019-03-09T19:28:02.135Z,99.90
2019-03-09T19:30:59.617Z,99.90
2019-03-09T19:33:56.305Z,99.90
2019-03-09T19:36:52.435Z,99.90
2019-03-09T19:39:49.265Z,99.90
2019-03-09T19:42:52.031Z,99.90
2019-03-09T19:45:48.475Z,99.90
2019-03-09T19:48:46.220Z,99.90
2019-03-09T19:51:43.239Z,99.90
2019-03-09T19:54:39.318Z,99.90
2019-03-09T19:57:35.432Z,99.90
2019-03-09T20:00:32.339Z,99.90
2019-03-09T20:03:28.095Z,99.90
2019-03-09T20:06:24.251Z,99.90
2019-03-09T20:09:21.087Z,99.90
2019-03-09T20:12:18.146Z,99.90
2019-03-09T20:15:16.511Z,99.90
2019-03-09T20:18:13.155Z,99.90
2019-03-09T20:21:08.890Z,99.90
2019-03-09T20:24:05.768Z,99.90
2019-03-09T20:27:02.676Z,99.90
2019-03-09T20:29:58.943Z,99.90
2019-03-09T20:32:55.867Z,99.90
2019-03-09T20:35:52.743Z,99.90
2019-03-09T20:38:49.530Z,99.90
2019-03-09T20:41:46.092Z,99.90
2019-03-09T20:44:42.288Z,99.90
2019-03-09T20:47:38.020Z,99.90
2019-03-09T20:50:34.787Z,99.90
2019-03-09T20:53:30.682Z,99.90
2019-03-09T20:56:26.812Z,99.90
2019-03-09T20:59:23.614Z,99.90
2019-03-09T21:02:20.240Z,99.90
2019-03-09T21:05:16.624Z,99.90
2019-03-09T21:08:12.868Z,99.90
2019-03-09T21:11:17.760Z,99.90
2019-03-09T21:14:14.751Z,99.90
2019-03-09T21:17:12.563Z,99.90
2019-03-09T21:20:09.156Z,99.90
2019-03-09T21:23:17.898Z,99.90
2019-03-09T21:26:15.525Z,99.90
2019-03-09T21:29:17.351Z,99.90
2019-03-09T21:32:13.345Z,99.90
2019-03-09T21:35:13.793Z,99.90
2019-03-09T21:38:09.612Z,99.90
2019-03-09T21:41:05.395Z,99.90
2019-03-09T21:44:01.255Z,99.90
2019-03-09T21:46:59.031Z,99.90
2019-03-09T21:49:54.756Z,99.90
2019-03-09T21:52:51.251Z,99.90
2019-03-09T21:55:47.256Z,99.90
2019-03-09T21:58:44.120Z,99.90
2019-03-09T22:01:40.774Z,99.90
2019-03-09T22:04:36.635Z,99.90
2019-03-09T22:07:33.483Z,99.90
2019-03-09T22:10:29.918Z,99.90
2019-03-09T22:13:28.143Z,99.90
2019-03-09T22:16:24.015Z,99.90
2019-03-09T22:19:22.376Z,99.90
2019-03-09T22:22:19.213Z,99.90
2019-03-09T22:25:15.171Z,99.90
2019-03-09T22:28:11.685Z,99.90
2019-03-09T22:31:07.332Z,99.90
2019-03-09T22:34:03.375Z,99.90
2019-03-09T22:37:02.217Z,99.90
2019-03-09T22:39:57.699Z,99.90
2019-03-09T22:42:54.393Z,99.90
2019-03-09T22:45:50.899Z,99.90
2019-03-09T22:48:46.905Z,99.90
2019-03-09T22:51:43.491Z,99.90
2019-03-09T22:54:39.573Z,99.90
2019-03-09T22:57:36.456Z,99.90
2019-03-09T23:00:32.841Z,99.90
2019-03-09T23:03:30.672Z,99.90
2019-03-09T23:06:26.391Z,99.90
2019-03-09T23:09:22.257Z,99.90
2019-03-09T23:12:19.046Z,99.90
2019-03-09T23:15:16.355Z,99.90
2019-03-09T23:18:12.978Z,99.90
2019-03-09T23:21:08.989Z,99.90
2019-03-09T23:24:05.105Z,99.90
2019-03-09T23:27:01.142Z,99.90
2019-03-09T23:29:58.996Z,99.90
2019-03-09T23:32:55.914Z,99.90
2019-03-09T23:35:53.044Z,99.90
2019-03-09T23:38:48.612Z,99.90
2019-03-09T23:41:44.689Z,99.90
2019-03-09T23:44:40.942Z,99.90
2019-03-09T23:47:36.746Z,99.90
2019-03-09T23:50:32.572Z,99.90
2019-03-09T23:53:28.364Z,99.90
2019-03-09T23:56:23.883Z,99.90
2019-03-09T23:59:20.546Z,99.90
